Time;durP1;ratioP1;P1;durP2;ratioP2;P2;SDS_P1;SDS_P2;PMS_P1;PMS_P2;Temp;Humidity;BMP_temperature;BMP_pressure;BME280_temperature;BME280_humidity;BME280_pressure;Samples;Min_cycle;Max_cycle;Signal;HPM_P1;HPM_P2
2022/04/26 03:36:16;;;;;;;15.90;9.43;;;8.20;99.90;;;;;;4879072;29;20414;-53
2022/04/26 03:38:47;;;;;;;15.00;8.95;;;8.20;99.90;;;;;;4887868;29;20041;-55
2022/04/26 03:41:15;;;;;;;13.27;9.18;;;8.20;99.90;;;;;;4897364;29;20417;-52
2022/04/26 03:43:42;;;;;;;15.30;10.05;;;8.10;99.90;;;;;;4897681;29;20064;-55
2022/04/26 03:46:08;;;;;;;19.27;11.05;;;8.10;99.90;;;;;;4897642;29;20453;-55
2022/04/26 03:48:35;;;;;;;21.15;11.60;;;8.00;99.90;;;;;;4896469;29;20045;-52
2022/04/26 03:51:02;;;;;;;21.13;13.43;;;7.90;99.90;;;;;;4897102;29;20417;-52
2022/04/26 03:53:29;;;;;;;19.67;12.57;;;7.90;99.90;;;;;;4897307;29;20187;-54
2022/04/26 03:55:56;;;;;;;17.60;10.98;;;7.90;99.90;;;;;;4896468;29;20083;-55
2022/04/26 03:58:22;;;;;;;18.23;11.57;;;7.90;99.90;;;;;;4897015;29;20100;-52
2022/04/26 04:00:49;;;;;;;24.73;12.18;;;7.90;99.90;;;;;;4897134;29;20413;-54
2022/04/26 04:03:16;;;;;;;24.00;12.40;;;7.90;99.90;;;;;;4897107;29;20076;-54
2022/04/26 04:05:43;;;;;;;23.63;14.65;;;7.90;99.90;;;;;;4896619;29;20044;-55
2022/04/26 04:08:10;;;;;;;22.98;13.30;;;8.00;99.90;;;;;;4897066;29;20101;-52
2022/04/26 04:10:37;;;;;;;24.50;13.35;;;8.10;99.90;;;;;;4895590;29;20044;-57
2022/04/26 04:13:03;;;;;;;24.40;13.93;;;8.10;99.90;;;;;;4896507;29;20049;-56
2022/04/26 04:15:30;;;;;;;18.73;11.38;;;8.20;99.90;;;;;;4895785;29;20040;-52
2022/04/26 04:17:57;;;;;;;16.15;9.63;;;8.20;99.90;;;;;;4897028;29;20048;-54
2022/04/26 04:20:24;;;;;;;12.63;9.35;;;8.20;99.90;;;;;;4896789;29;20049;-52
2022/04/26 04:22:53;;;;;;;18.85;9.80;;;8.10;99.90;;;;;;4897241;29;20458;-52
2022/04/26 04:25:20;;;;;;;15.10;9.35;;;8.10;99.90;;;;;;4895352;29;20040;-56
2022/04/26 04:27:47;;;;;;;16.27;9.93;;;8.10;99.90;;;;;;4896446;29;20075;-55
2022/04/26 04:30:15;;;;;;;15.82;10.85;;;8.00;99.90;;;;;;4896105;29;20486;-54
2022/04/26 04:32:42;;;;;;;17.65;11.32;;;8.10;99.90;;;;;;4894272;29;20526;-56
2022/04/26 04:35:09;;;;;;;20.00;11.70;;;8.10;99.90;;;;;;4895909;29;20081;-54
2022/04/26 04:37:35;;;;;;;20.88;12.13;;;8.20;99.90;;;;;;4891379;29;20104;-54
2022/04/26 04:40:02;;;;;;;20.50;12.75;;;8.30;99.90;;;;;;4893490;29;20044;-52
2022/04/26 04:42:29;;;;;;;24.88;14.80;;;8.40;99.90;;;;;;4896276;29;20041;-55
2022/04/26 04:44:56;;;;;;;25.02;14.00;;;8.40;99.90;;;;;;4895414;29;20044;-54
2022/04/26 04:47:23;;;;;;;;;;;8.50;99.90;;;;;;4896264;29;20037;-54
2022/04/26 04:49:50;;;;;;;26.52;13.32;;;8.50;99.90;;;;;;4895241;29;20337;-52
2022/04/26 04:52:17;;;;;;;22.98;13.88;;;8.50;99.90;;;;;;4895407;29;20094;-56
2022/04/26 04:54:44;;;;;;;18.70;12.70;;;8.60;99.90;;;;;;4896389;29;20036;-54
2022/04/26 04:57:11;;;;;;;22.17;13.25;;;8.70;99.90;;;;;;4896655;29;20056;-53
2022/04/26 04:59:37;;;;;;;25.00;13.38;;;8.70;99.90;;;;;;4896060;29;20413;-54
2022/04/26 05:02:04;;;;;;;19.50;13.15;;;8.70;99.90;;;;;;4895176;29;20056;-54
2022/04/26 05:04:31;;;;;;;20.92;13.15;;;8.70;99.90;;;;;;4896114;29;20057;-54
2022/04/26 05:06:58;;;;;;;20.50;13.38;;;8.70;99.90;;;;;;4896219;29;20096;-54
2022/04/26 05:09:24;;;;;;;19.02;12.10;;;8.70;99.90;;;;;;4896208;29;20513;-54
2022/04/26 05:11:52;;;;;;;18.25;11.85;;;8.80;99.90;;;;;;4894784;29;20040;-55
2022/04/26 05:14:19;;;;;;;18.02;11.75;;;8.80;99.90;;;;;;4896463;29;20053;-54
2022/04/26 05:16:45;;;;;;;25.10;13.43;;;8.80;99.90;;;;;;4896091;29;20049;-56
2022/04/26 05:19:12;;;;;;;23.00;12.17;;;8.80;99.90;;;;;;4895258;29;20184;-54
2022/04/26 05:21:39;;;;;;;20.52;12.85;;;8.90;99.90;;;;;;4895894;29;20292;-53
2022/04/26 05:26:51;;;;;;;20.10;12.55;;;9.00;99.90;;;;;;4896457;29;20045;-55
2022/04/26 05:29:18;;;;;;;21.15;11.93;;;9.00;99.90;;;;;;4899327;29;20048;-54
2022/04/26 05:31:45;;;;;;;21.67;13.32;;;9.10;99.90;;;;;;4899226;29;20167;-52
2022/04/26 05:34:11;;;;;;;20.33;11.93;;;9.10;99.90;;;;;;4899748;29;20044;-54
2022/04/26 05:36:38;;;;;;;21.48;12.57;;;9.10;99.90;;;;;;4898950;29;20067;-54
2022/04/26 05:39:05;;;;;;;19.42;11.60;;;9.00;99.90;;;;;;4899669;29;20048;-54
2022/04/26 05:41:35;;;;;;;19.00;11.68;;;9.10;99.90;;;;;;4899208;29;20115;-57
2022/04/26 05:44:01;;;;;;;20.67;12.23;;;9.20;99.90;;;;;;4898064;29;20048;-54
2022/04/26 05:46:28;;;;;;;17.30;11.35;;;9.20;99.90;;;;;;4897841;29;20049;-54
2022/04/26 05:48:55;;;;;;;22.33;12.10;;;9.20;99.90;;;;;;4899493;29;20222;-52
2022/04/26 05:51:23;;;;;;;20.58;11.48;;;9.30;99.90;;;;;;4899177;29;20401;-53
2022/04/26 05:53:49;;;;;;;18.30;11.27;;;9.30;99.90;;;;;;4898554;29;20047;-54
2022/04/26 05:56:16;;;;;;;17.83;10.80;;;9.40;99.90;;;;;;4899478;29;20060;-55
2022/04/26 05:58:43;;;;;;;17.65;10.43;;;9.40;99.90;;;;;;4899370;29;20061;-53
2022/04/26 06:01:10;;;;;;;18.48;10.93;;;9.50;99.90;;;;;;4898050;29;20048;-56
2022/04/26 06:03:36;;;;;;;16.30;10.00;;;9.50;99.90;;;;;;4898119;29;20460;-56
2022/04/26 06:06:03;;;;;;;17.25;11.30;;;9.50;99.90;;;;;;4899473;29;20056;-56
2022/04/26 06:08:31;;;;;;;16.17;10.52;;;9.60;99.90;;;;;;4898179;29;20089;-54
2022/04/26 06:10:59;;;;;;;16.08;10.25;;;9.60;99.90;;;;;;4898690;29;20048;-54
2022/04/26 06:13:25;;;;;;;15.18;10.32;;;9.80;99.90;;;;;;4899203;29;20486;-56
2022/04/26 06:15:52;;;;;;;16.23;10.45;;;9.80;99.90;;;;;;4899268;29;20044;-57
2022/04/26 06:18:19;;;;;;;19.38;10.55;;;9.90;99.90;;;;;;4898229;29;20044;-55
2022/04/26 06:20:46;;;;;;;15.32;9.90;;;9.90;99.90;;;;;;4898473;29;20052;-57
2022/04/26 06:23:13;;;;;;;16.88;9.50;;;10.00;99.90;;;;;;4899163;29;20261;-56
2022/04/26 06:25:39;;;;;;;16.20;10.02;;;10.10;99.90;;;;;;4897940;29;20040;-53
2022/04/26 06:28:09;;;;;;;16.38;10.65;;;10.10;99.90;;;;;;4898427;29;20049;-54
2022/04/26 06:30:37;;;;;;;18.33;11.05;;;10.20;99.90;;;;;;4898773;29;20037;-54
2022/04/26 06:33:05;;;;;;;18.23;11.82;;;10.20;99.90;;;;;;4898668;29;20045;-55
2022/04/26 06:35:32;;;;;;;18.88;10.60;;;10.30;99.90;;;;;;4897582;29;20498;-57
2022/04/26 06:37:59;;;;;;;18.95;10.88;;;10.40;99.90;;;;;;4898678;29;20056;-55
2022/04/26 06:40:26;;;;;;;18.35;10.60;;;10.60;99.90;;;;;;4898474;29;20524;-54
2022/04/26 06:42:53;;;;;;;17.88;11.10;;;10.70;99.90;;;;;;4898527;29;20589;-56
2022/04/26 06:45:20;;;;;;;15.70;10.90;;;10.70;99.90;;;;;;4897800;29;20048;-54
2022/04/26 06:47:49;;;;;;;17.00;10.52;;;10.70;99.90;;;;;;4898609;29;20056;-54
2022/04/26 06:50:17;;;;;;;13.77;9.55;;;10.80;99.90;;;;;;4898163;29;20052;-54
2022/04/26 06:52:44;;;;;;;16.17;10.38;;;10.80;99.90;;;;;;4897479;29;20032;-56
2022/04/26 06:55:11;;;;;;;15.20;10.50;;;10.90;99.90;;;;;;4898469;29;20044;-55
2022/04/26 06:57:38;;;;;;;15.15;10.32;;;11.20;99.90;;;;;;4898329;29;20645;-56
2022/04/26 07:00:06;;;;;;;15.60;9.75;;;11.50;99.90;;;;;;4896896;29;20105;-54
2022/04/26 07:02:33;;;;;;;13.68;9.30;;;11.70;99.90;;;;;;4898185;29;20057;-56
2022/04/26 07:05:01;;;;;;;13.95;9.02;;;11.80;99.90;;;;;;4898259;29;20048;-57
2022/04/26 07:07:27;;;;;;;;;;;11.80;99.90;;;;;;4897554;29;20589;-53
2022/04/26 07:09:54;;;;;;;13.63;9.60;;;11.80;99.90;;;;;;4897827;29;19923;-56
2022/04/26 07:12:21;;;;;;;14.88;9.63;;;11.70;99.90;;;;;;4898084;29;20414;-54
2022/04/26 07:14:48;;;;;;;14.38;9.45;;;11.60;99.90;;;;;;4898201;29;20490;-53
2022/04/26 07:17:17;;;;;;;15.80;9.38;;;11.50;99.90;;;;;;4897315;29;20049;-54
2022/04/26 07:19:43;;;;;;;18.10;9.55;;;11.50;99.90;;;;;;4897594;29;20059;-54
2022/04/26 07:22:26;;;;;;;13.40;9.55;;;11.40;99.90;;;;;;4898204;29;20357;-56
2022/04/26 07:24:53;;;;;;;15.13;9.90;;;11.40;99.90;;;;;;4895684;29;20488;-54
2022/04/26 07:27:20;;;;;;;16.98;10.27;;;11.40;99.90;;;;;;4897716;29;20060;-57
2022/04/26 07:29:50;;;;;;;13.52;9.65;;;11.20;99.90;;;;;;4897596;29;20462;-54
2022/04/26 07:32:17;;;;;;;15.63;10.30;;;11.20;99.90;;;;;;4896306;29;20049;-54
2022/04/26 07:34:45;;;;;;;15.32;10.38;;;11.20;99.90;;;;;;4897809;29;20557;-53
2022/04/26 07:37:12;;;;;;;13.52;9.40;;;11.20;99.90;;;;;;4897883;29;20084;-56
2022/04/26 07:39:39;;;;;;;13.48;9.73;;;11.30;99.90;;;;;;4904054;29;20060;-57
2022/04/26 07:42:06;;;;;;;13.18;9.32;;;11.20;99.90;;;;;;4896629;29;20056;-56
2022/04/26 07:44:34;;;;;;;14.55;9.75;;;11.10;99.90;;;;;;4897472;29;20112;-56
2022/04/26 07:47:05;;;;;;;16.30;10.30;;;11.20;99.90;;;;;;4896967;29;20116;-54
2022/04/26 07:49:32;;;;;;;15.20;10.07;;;11.20;99.90;;;;;;4896289;29;20045;-56
2022/04/26 07:51:59;;;;;;;17.75;10.27;;;11.30;99.90;;;;;;4897252;29;20147;-55
2022/04/26 07:54:27;;;;;;;16.15;10.38;;;11.40;99.90;;;;;;4897468;29;20183;-54
2022/04/26 07:56:54;;;;;;;16.45;10.07;;;11.40;99.90;;;;;;4896691;29;20048;-55
2022/04/26 07:59:21;;;;;;;;;;;11.30;99.90;;;;;;4895775;29;20127;-56
2022/04/26 08:01:48;;;;;;;14.38;9.80;;;11.40;99.90;;;;;;4896827;29;19923;-57
2022/04/26 08:04:14;;;;;;;16.40;9.88;;;11.50;99.90;;;;;;4897513;29;20041;-56
2022/04/26 08:06:42;;;;;;;16.98;10.52;;;11.50;99.90;;;;;;4895958;29;20331;-57
2022/04/26 08:09:09;;;;;;;14.98;10.13;;;11.50;99.90;;;;;;4894568;29;20516;-55
2022/04/26 08:11:36;;;;;;;16.08;9.68;;;11.50;99.90;;;;;;4895094;29;20089;-54
2022/04/26 08:14:03;;;;;;;15.55;10.63;;;11.50;99.90;;;;;;4895404;29;20059;-56
2022/04/26 08:16:30;;;;;;;19.85;10.63;;;11.70;99.90;;;;;;4894735;29;20036;-57
2022/04/26 08:18:56;;;;;;;18.17;11.50;;;11.70;99.90;;;;;;4895414;29;20045;-56
2022/04/26 08:21:23;;;;;;;24.67;11.35;;;11.80;99.90;;;;;;4895064;29;20060;-55
2022/04/26 08:29:22;;;;;;;15.35;10.25;;;11.90;99.90;;;;;;4894542;29;20112;-57
2022/04/26 08:31:49;;;;;;;15.82;10.27;;;12.00;99.90;;;;;;4896495;29;20052;-56
2022/04/26 08:34:15;;;;;;;14.27;10.38;;;12.10;99.90;;;;;;4896611;29;20570;-55
2022/04/26 08:36:42;;;;;;;13.52;9.77;;;12.20;99.90;;;;;;4896643;29;20049;-55
2022/04/26 08:39:09;;;;;;;15.00;9.82;;;12.30;99.90;;;;;;4896011;29;20036;-52
2022/04/26 08:41:35;;;;;;;14.13;9.32;;;12.60;99.90;;;;;;4896186;29;20463;-56
2022/04/26 08:44:09;;;;;;;15.02;9.73;;;12.60;99.90;;;;;;4895652;29;20088;-56
2022/04/26 08:52:07;;;;;;;16.90;10.60;;;12.70;99.90;;;;;;4896715;29;20052;-53
2022/04/26 08:54:35;;;;;;;14.07;10.18;;;12.80;99.90;;;;;;4896557;29;20052;-53
2022/04/26 08:57:08;;;;;;;14.85;9.65;;;12.80;99.90;;;;;;4895554;29;20045;-56
2022/04/26 08:59:38;;;;;;;17.50;11.15;;;13.00;99.90;;;;;;4893744;29;20446;-55
2022/04/26 09:02:22;;;;;;;15.85;10.02;;;13.10;99.90;;;;;;4911533;23;20027;-56
2022/04/26 09:04:51;;;;;;;16.63;10.20;;;13.10;99.90;;;;;;4922516;29;20044;-48
2022/04/26 09:07:33;;;;;;;16.05;10.05;;;13.20;99.90;;;;;;4950287;29;20043;-49
2022/04/26 09:10:18;;;;;;;17.55;9.85;;;13.30;99.90;;;;;;4935394;29;20066;-48
2022/04/26 09:13:09;;;;;;;14.55;9.57;;;13.60;99.90;;;;;;4910686;29;20077;-48
2022/04/26 09:15:47;;;;;;;15.50;8.95;;;13.80;99.90;;;;;;4903786;29;20043;-50
2022/04/26 09:18:27;;;;;;;13.48;9.15;;;14.00;99.90;;;;;;4901466;29;20056;-49
2022/04/26 09:20:56;;;;;;;13.57;9.38;;;14.10;99.90;;;;;;4903880;29;20036;-51
2022/04/26 09:23:28;;;;;;;12.10;9.00;;;14.30;99.90;;;;;;4905118;29;20044;-52
2022/04/26 09:26:07;;;;;;;13.10;8.55;;;14.40;99.90;;;;;;4911062;29;20107;-49
2022/04/26 09:28:36;;;;;;;11.88;8.98;;;14.70;99.90;;;;;;4907255;29;20040;-50
2022/04/26 09:31:24;;;;;;;11.77;8.38;;;14.80;99.90;;;;;;4910083;29;20505;-50
2022/04/26 09:33:53;;;;;;;12.43;8.63;;;15.20;99.90;;;;;;4905551;29;20502;-51
2022/04/26 09:36:21;;;;;;;11.82;8.10;;;15.60;99.90;;;;;;4910074;29;20040;-49
2022/04/26 09:38:57;;;;;;;10.65;7.18;;;15.90;99.90;;;;;;4902859;29;20051;-50
2022/04/26 09:41:25;;;;;;;11.43;7.40;;;16.00;99.90;;;;;;4910033;29;20044;-50
2022/04/26 09:44:04;;;;;;;10.20;7.25;;;16.10;99.90;;;;;;4914064;29;20052;-49
2022/04/26 09:46:43;;;;;;;8.43;6.38;;;16.10;99.90;;;;;;4904851;29;20474;-49
2022/04/26 09:49:12;;;;;;;7.57;5.95;;;16.00;99.90;;;;;;4911032;29;20040;-50
2022/04/26 09:51:39;;;;;;;8.95;6.70;;;16.00;99.90;;;;;;4913660;29;20045;-49
2022/04/26 09:54:07;;;;;;;7.22;5.55;;;15.80;99.90;;;;;;4912835;29;20104;-51
2022/04/26 09:56:34;;;;;;;7.55;5.57;;;15.70;99.90;;;;;;4900368;29;20100;-51
2022/04/26 09:59:03;;;;;;;6.57;5.13;;;15.30;99.90;;;;;;4903571;29;20092;-49
2022/04/26 10:01:35;;;;;;;8.10;5.30;;;14.90;99.90;;;;;;4895489;29;20055;-52
2022/04/26 10:04:04;;;;;;;11.02;4.68;;;14.70;99.90;;;;;;4913973;29;20044;-50
2022/04/26 10:06:34;;;;;;;5.45;4.30;;;14.60;99.90;;;;;;4914582;29;20091;-49
2022/04/26 10:09:02;;;;;;;7.68;4.82;;;14.50;99.90;;;;;;4914631;29;20036;-50
2022/04/26 10:11:30;;;;;;;6.78;4.65;;;14.40;99.90;;;;;;4899523;29;20512;-48
2022/04/26 10:14:00;;;;;;;10.77;4.80;;;14.60;99.90;;;;;;4917812;29;20048;-48
2022/04/26 10:16:27;;;;;;;6.82;4.40;;;14.70;99.90;;;;;;4918135;29;20060;-49
2022/04/26 10:19:01;;;;;;;;;;;14.70;99.90;;;;;;4918338;29;20108;-49
2022/04/26 10:21:27;;;;;;;4.40;3.30;;;14.70;99.90;;;;;;4899748;29;19923;-48
2022/04/26 10:24:01;;;;;;;5.60;3.22;;;14.90;99.90;;;;;;4909893;29;20044;-48
2022/04/26 10:26:28;;;;;;;4.88;3.50;;;15.00;99.90;;;;;;4905973;29;20051;-48
2022/04/26 10:29:00;;;;;;;4.28;3.80;;;15.00;99.90;;;;;;4909418;29;20040;-48
2022/04/26 10:31:38;;;;;;;5.32;3.90;;;15.10;99.90;;;;;;4914796;29;20051;-49
2022/04/26 10:34:42;;;;;;;7.07;4.28;;;15.30;99.90;;;;;;4917384;29;20528;-48
2022/04/26 10:37:09;;;;;;;4.63;3.85;;;15.50;99.90;;;;;;4912494;29;20048;-50
2022/04/26 10:39:42;;;;;;;4.53;3.70;;;15.60;99.90;;;;;;4911344;29;20097;-50
2022/04/26 10:42:12;;;;;;;6.40;4.75;;;15.60;99.90;;;;;;4907071;29;20108;-50
2022/04/26 10:44:41;;;;;;;5.75;4.40;;;15.30;99.90;;;;;;4906305;29;20048;-50
2022/04/26 10:47:08;;;;;;;7.25;4.55;;;15.10;99.90;;;;;;4904956;29;20059;-53
2022/04/26 10:49:38;;;;;;;;;;;15.10;99.90;;;;;;4917297;29;20047;-52
2022/04/26 10:52:23;;;;;;;6.28;4.45;;;15.10;99.90;;;;;;4917402;29;19923;-51
2022/04/26 10:54:58;;;;;;;7.28;5.70;;;15.10;99.90;;;;;;4917476;29;20048;-50
2022/04/26 10:57:27;;;;;;;7.38;5.22;;;15.30;99.90;;;;;;4907703;29;20646;-49
2022/04/26 11:00:00;;;;;;;7.97;5.20;;;15.50;99.90;;;;;;4910057;29;20045;-51
2022/04/26 11:02:29;;;;;;;7.65;5.85;;;15.50;99.90;;;;;;4911247;29;20036;-49
2022/04/26 11:04:58;;;;;;;6.93;5.80;;;15.50;99.90;;;;;;4911819;29;20044;-50
2022/04/26 11:07:27;;;;;;;10.80;6.80;;;15.30;99.90;;;;;;4909793;29;20070;-49
2022/04/26 11:09:55;;;;;;;9.73;6.43;;;15.20;99.90;;;;;;4911315;29;20059;-49
2022/04/26 11:12:28;;;;;;;8.45;6.57;;;15.10;99.90;;;;;;4910495;29;20071;-51
2022/04/26 11:14:57;;;;;;;9.27;6.15;;;15.20;99.90;;;;;;4894612;29;20490;-50
2022/04/26 11:17:24;;;;;;;8.13;6.10;;;15.30;99.90;;;;;;4903907;29;20113;-51
2022/04/26 11:19:56;;;;;;;8.13;6.35;;;15.30;99.90;;;;;;4907904;29;20075;-52
2022/04/26 11:22:25;;;;;;;11.00;7.28;;;15.10;99.90;;;;;;4880884;29;20055;-53
2022/04/26 11:28:00;;;;;;;8.75;6.40;;;14.80;99.90;;;;;;4916752;29;20044;-54
2022/04/26 11:30:32;;;;;;;9.07;7.13;;;14.50;99.90;;;;;;4916465;29;20047;-51
2022/04/26 11:33:01;;;;;;;10.60;7.30;;;14.30;99.90;;;;;;4915842;29;20107;-50
2022/04/26 11:35:29;;;;;;;12.38;7.45;;;14.10;99.90;;;;;;4908877;29;20048;-50
2022/04/26 11:38:01;;;;;;;10.07;7.78;;;14.20;99.90;;;;;;4916504;29;20446;-50
2022/04/26 11:40:34;;;;;;;10.18;6.57;;;14.10;99.90;;;;;;4916187;29;20044;-49
2022/04/26 11:43:10;;;;;;;9.90;7.07;;;13.80;99.90;;;;;;4915648;29;20056;-48
2022/04/26 11:45:38;;;;;;;9.85;6.93;;;13.60;99.90;;;;;;4910159;29;20048;-51
2022/04/26 11:48:09;;;;;;;9.27;6.43;;;13.30;99.90;;;;;;4916315;29;20088;-48
2022/04/26 11:50:36;;;;;;;9.77;6.95;;;13.10;99.90;;;;;;4915973;29;20178;-49
2022/04/26 11:53:10;;;;;;;;;;;13.10;99.90;;;;;;4915678;29;20048;-50
2022/04/26 11:55:51;;;;;;;9.50;6.25;;;13.10;99.90;;;;;;4916333;29;20435;-50
2022/04/26 11:58:19;;;;;;;10.13;6.95;;;13.10;99.90;;;;;;4916329;29;20469;-49
2022/04/26 12:00:56;;;;;;;7.97;5.80;;;13.10;99.90;;;;;;4915073;29;20056;-49
2022/04/26 12:03:25;;;;;;;9.35;6.32;;;13.00;99.90;;;;;;4915646;29;20635;-49
2022/04/26 12:05:58;;;;;;;7.88;5.55;;;13.10;99.90;;;;;;4916202;29;20064;-51
2022/04/26 12:08:26;;;;;;;7.68;5.60;;;13.30;99.90;;;;;;4915967;29;20399;-50
2022/04/26 12:10:53;;;;;;;8.88;6.05;;;13.30;99.90;;;;;;4914828;29;20108;-49
2022/04/26 12:13:31;;;;;;;9.35;5.65;;;13.30;99.90;;;;;;4915725;29;20044;-51
2022/04/26 12:16:18;;;;;;;8.60;6.07;;;13.20;99.90;;;;;;4915850;29;20096;-50
2022/04/26 12:18:53;;;;;;;8.98;5.70;;;13.00;99.90;;;;;;4913357;29;20549;-49
2022/04/26 12:21:21;;;;;;;5.40;4.13;;;12.80;99.90;;;;;;4907327;29;20048;-51
2022/04/26 12:24:09;;;;;;;3.78;2.55;;;12.60;99.90;;;;;;4900309;29;20048;-50
2022/04/26 12:26:37;;;;;;;;;;;12.40;99.90;;;;;;4897276;29;20052;-50
2022/04/26 12:29:13;;;;;;;1.48;1.20;;;12.20;99.90;;;;;;4908573;29;19994;-52
2022/04/26 12:31:45;;;;;;;0.88;0.88;;;12.10;99.90;;;;;;4915281;29;20040;-48
2022/04/26 12:34:16;;;;;;;3.38;0.80;;;11.60;99.90;;;;;;4915344;29;20080;-49
2022/04/26 12:36:52;;;;;;;0.30;0.20;;;11.10;99.90;;;;;;4915604;29;20052;-48
2022/04/26 12:39:24;;;;;;;7.85;0.28;;;9.90;99.90;;;;;;4914366;29;20080;-49
2022/04/26 12:41:53;;;;;;;2.55;0.10;;;9.00;99.90;;;;;;4915313;29;20067;-48
2022/04/26 12:44:20;;;;;;;1.58;0.10;;;8.60;99.90;;;;;;4915529;29;20497;-49
2022/04/26 12:52:48;;;;;;;1.13;0.10;;;8.00;99.90;;;;;;4915325;29;20047;-50
2022/04/26 12:55:29;;;;;;;0.35;0.10;;;8.10;99.90;;;;;;4914473;29;20048;-49
2022/04/26 12:57:58;;;;;;;1.63;0.15;;;7.90;99.90;;;;;;4915170;29;20059;-50
2022/04/26 13:00:26;;;;;;;0.00;0.00;;;7.70;99.90;;;;;;4914974;29;20178;-49
2022/04/26 13:02:56;;;;;;;0.30;0.00;;;7.40;99.90;;;;;;4911487;29;20417;-51
2022/04/26 13:05:41;;;;;;;0.43;0.33;;;7.30;99.90;;;;;;4903268;29;20115;-48
2022/04/26 13:08:09;;;;;;;;;;;7.30;99.90;;;;;;4907099;29;20694;-49
2022/04/26 13:10:35;;;;;;;0.70;0.10;;;7.40;99.90;;;;;;4907819;29;19971;-49
2022/04/26 13:13:03;;;;;;;0.70;0.17;;;7.30;99.90;;;;;;4908211;29;20095;-49
2022/04/26 13:15:30;;;;;;;0.55;0.10;;;7.40;99.90;;;;;;4907134;29;20568;-49
2022/04/26 13:17:57;;;;;;;0.17;0.10;;;7.30;99.90;;;;;;4910720;29;20536;-49
2022/04/26 13:20:24;;;;;;;0.43;0.20;;;7.30;99.90;;;;;;4906735;29;20468;-50
2022/04/26 13:22:51;;;;;;;;;;;7.40;99.90;;;;;;4907226;29;20049;-49
2022/04/26 13:25:19;;;;;;;1.75;0.15;;;7.40;99.90;;;;;;4906206;29;19935;-54
2022/04/26 13:27:47;;;;;;;1.50;0.10;;;7.40;99.90;;;;;;4909977;29;20386;-50
2022/04/26 13:30:15;;;;;;;1.33;0.10;;;7.50;99.90;;;;;;4908341;29;20441;-49
2022/04/26 13:32:42;;;;;;;0.57;0.20;;;7.50;99.90;;;;;;4906658;29;20572;-50
2022/04/26 13:35:09;;;;;;;0.50;0.10;;;7.60;99.90;;;;;;4898234;29;20104;-49
2022/04/26 13:37:38;;;;;;;0.50;0.17;;;7.60;99.90;;;;;;4899390;29;20048;-51
2022/04/26 13:40:08;;;;;;;0.43;0.20;;;7.70;99.90;;;;;;4914112;29;20052;-49
2022/04/26 13:42:36;;;;;;;1.75;0.35;;;7.70;99.90;;;;;;4914932;29;20055;-51
2022/04/26 13:45:04;;;;;;;3.05;0.20;;;7.60;99.90;;;;;;4915757;29;20071;-50
2022/04/26 13:47:31;;;;;;;0.60;0.10;;;7.60;99.90;;;;;;4918033;29;20111;-51
2022/04/26 13:49:58;;;;;;;0.40;0.10;;;7.60;99.90;;;;;;4918140;29;20129;-53
2022/04/26 13:52:24;;;;;;;2.33;0.20;;;7.50;99.90;;;;;;4918312;29;20070;-50
2022/04/26 13:54:51;;;;;;;0.75;0.22;;;7.50;99.90;;;;;;4918498;29;20048;-50
2022/04/26 13:57:18;;;;;;;2.08;0.40;;;7.50;99.90;;;;;;4906426;29;20057;-50
2022/04/26 13:59:45;;;;;;;2.58;0.28;;;7.60;99.90;;;;;;4911958;29;20036;-49
2022/04/26 14:02:13;;;;;;;2.40;0.63;;;7.60;99.90;;;;;;4910486;29;20051;-50
2022/04/26 14:04:41;;;;;;;7.03;2.38;;;7.60;99.90;;;;;;4911466;29;20044;-51
2022/04/26 14:07:08;;;;;;;3.38;1.17;;;7.60;99.90;;;;;;4899699;29;20044;-49
2022/04/26 14:09:35;;;;;;;;;;;7.60;99.90;;;;;;4907311;29;20409;-50
2022/04/26 14:12:03;;;;;;;5.95;2.47;;;7.90;99.90;;;;;;4911610;29;20017;-51
2022/04/26 14:22:47;;;;;;;5.03;1.30;;;7.60;99.90;;;;;;4917305;29;20040;-52
2022/04/26 14:25:14;;;;;;;4.70;0.90;;;7.50;99.90;;;;;;4917818;29;20059;-50
2022/04/26 14:27:43;;;;;;;2.53;0.90;;;7.50;99.90;;;;;;4917902;29;20127;-50
2022/04/26 14:30:12;;;;;;;1.77;0.68;;;7.40;99.90;;;;;;4898645;29;20056;-52
2022/04/26 14:32:58;;;;;;;3.15;0.50;;;7.40;99.90;;;;;;4913876;29;20044;-53
2022/04/26 14:35:28;;;;;;;1.05;0.30;;;7.40;99.90;;;;;;4899068;29;20064;-49
2022/04/26 14:37:56;;;;;;;3.15;0.40;;;7.30;99.90;;;;;;4899123;29;20052;-52
2022/04/26 14:40:23;;;;;;;1.55;0.20;;;7.40;99.90;;;;;;4912023;29;20441;-51
2022/04/26 14:42:50;;;;;;;1.75;0.30;;;7.40;99.90;;;;;;4917492;29;20048;-52
2022/04/26 14:45:17;;;;;;;0.10;0.10;;;7.30;99.90;;;;;;4917750;29;20040;-49
2022/04/26 14:47:44;;;;;;;0.50;0.30;;;7.30;99.90;;;;;;4916603;29;20087;-49
2022/04/26 14:50:10;;;;;;;0.80;0.30;;;7.30;99.90;;;;;;4916959;29;20048;-50
2022/04/26 14:52:37;;;;;;;0.73;0.30;;;7.30;99.90;;;;;;4914808;29;20044;-49
2022/04/26 14:55:07;;;;;;;1.17;0.60;;;7.30;99.90;;;;;;4912531;29;20449;-50
2022/04/26 14:57:36;;;;;;;7.07;3.38;;;7.20;99.90;;;;;;4905733;29;20044;-50
2022/04/26 15:00:07;;;;;;;2.90;2.28;;;7.30;99.90;;;;;;4913785;29;20047;-53
2022/04/26 15:02:40;;;;;;;2.90;2.15;;;7.30;99.90;;;;;;4925395;23;20374;-53
2022/04/26 15:05:11;;;;;;;3.40;2.17;;;7.20;99.90;;;;;;4932373;29;20049;-55
2022/04/26 15:10:31;;;;;;;1.98;1.10;;;7.30;99.90;;;;;;4909877;29;20148;-54
2022/04/26 15:18:51;;;;;;;2.15;1.65;;;7.30;99.90;;;;;;4852420;29;20515;-55
2022/04/26 15:21:18;;;;;;;1.10;0.35;;;7.40;99.90;;;;;;4852735;29;20050;-55
2022/04/26 15:23:45;;;;;;;1.83;1.45;;;7.40;99.90;;;;;;4887076;29;20063;-53
2022/04/26 15:26:12;;;;;;;1.38;1.10;;;7.30;99.90;;;;;;4917115;29;20429;-53
2022/04/26 15:28:39;;;;;;;4.85;2.50;;;7.20;99.90;;;;;;4916315;29;20044;-53
2022/04/26 15:31:06;;;;;;;3.92;1.50;;;7.40;99.90;;;;;;4916286;29;20477;-53
2022/04/26 15:33:33;;;;;;;5.82;3.03;;;7.40;99.90;;;;;;4916390;29;20055;-56
2022/04/26 15:36:00;;;;;;;3.08;1.65;;;7.40;99.90;;;;;;4916635;29;20050;-52
2022/04/26 15:38:27;;;;;;;3.08;2.03;;;7.50;99.90;;;;;;4908898;29;20048;-54
2022/04/26 15:40:55;;;;;;;5.30;1.90;;;7.60;99.90;;;;;;4905626;29;20101;-55
2022/04/26 15:43:23;;;;;;;3.38;1.38;;;7.60;99.90;;;;;;4907947;29;20047;-53
2022/04/26 15:45:50;;;;;;;4.53;2.28;;;7.60;99.90;;;;;;4904273;29;20409;-53
2022/04/26 15:48:17;;;;;;;1.77;0.60;;;7.70;99.90;;;;;;4916192;29;20056;-54
2022/04/26 15:50:43;;;;;;;3.85;2.53;;;7.60;99.90;;;;;;4916126;29;20056;-54
2022/04/26 15:53:10;;;;;;;5.38;2.38;;;7.70;99.90;;;;;;4915828;29;20479;-54
2022/04/26 15:55:37;;;;;;;3.75;1.85;;;7.80;99.90;;;;;;4909620;29;20051;-52
2022/04/26 15:58:04;;;;;;;8.52;3.45;;;7.80;99.90;;;;;;4915490;29;20047;-52
2022/04/26 16:00:31;;;;;;;3.22;2.03;;;7.90;99.90;;;;;;4915499;29;20048;-57
2022/04/26 16:02:57;;;;;;;5.18;2.35;;;7.90;99.90;;;;;;4909688;29;20520;-56
2022/04/26 16:05:25;;;;;;;6.18;3.50;;;8.00;99.90;;;;;;4903824;29;20044;-54
2022/04/26 16:07:52;;;;;;;5.70;2.80;;;7.90;99.90;;;;;;4906397;29;20052;-53
2022/04/26 16:21:25;;;;;;;5.43;3.13;;;8.40;99.90;;;;;;4914360;29;20059;-56
2022/04/26 16:23:56;;;;;;;4.35;3.13;;;8.70;99.90;;;;;;4915153;29;20088;-57
2022/04/26 16:26:23;;;;;;;3.30;2.25;;;8.90;99.90;;;;;;4915638;29;20504;-54
2022/04/26 16:28:51;;;;;;;2.78;1.70;;;9.20;99.90;;;;;;4913973;29;20105;-55
2022/04/26 16:31:27;;;;;;;4.10;1.50;;;9.40;99.90;;;;;;4913604;29;20051;-57
2022/04/26 16:33:56;;;;;;;3.58;1.25;;;9.60;99.90;;;;;;4914122;29;20605;-57
2022/04/26 16:36:25;;;;;;;3.83;2.47;;;9.70;99.90;;;;;;4914711;29;20095;-56
2022/04/26 16:38:52;;;;;;;2.60;1.60;;;9.70;99.90;;;;;;4914627;29;20441;-56
2022/04/26 16:41:19;;;;;;;;;;;9.60;99.90;;;;;;4914892;29;20048;-56
2022/04/26 16:43:47;;;;;;;3.30;1.85;;;9.50;99.90;;;;;;4915062;29;19927;-54
2022/04/26 16:46:17;;;;;;;;;;;9.30;99.90;;;;;;4915669;29;20044;-56
2022/04/26 16:48:45;;;;;;;3.97;2.47;;;9.30;99.90;;;;;;4915952;29;19923;-55
2022/04/26 16:51:14;;;;;;;1.83;1.58;;;9.20;99.90;;;;;;4914308;29;20048;-55
2022/04/26 16:53:45;;;;;;;4.63;2.30;;;9.00;99.90;;;;;;4915018;29;20468;-56
2022/04/26 16:56:12;;;;;;;1.60;1.45;;;8.80;99.90;;;;;;4915332;29;20052;-55
2022/04/26 16:58:39;;;;;;;4.03;2.88;;;8.70;99.90;;;;;;4914581;29;20052;-55
2022/04/26 17:01:05;;;;;;;3.00;2.20;;;8.50;99.90;;;;;;4914199;29;20078;-55
2022/04/26 17:03:32;;;;;;;2.70;1.75;;;8.50;99.90;;;;;;4915119;29;20527;-52
2022/04/26 17:06:00;;;;;;;4.20;1.60;;;8.40;99.90;;;;;;4915272;29;20082;-54
2022/04/26 17:08:26;;;;;;;2.85;1.65;;;8.30;99.90;;;;;;4914506;29;20092;-53
2022/04/26 17:11:41;;;;;;;5.38;1.70;;;8.30;99.90;;;;;;4914605;29;20107;-53
2022/04/26 17:13:45;;;;;;;2.25;1.48;;;8.20;99.90;;;;;;4914770;29;20052;-54
2022/04/26 17:16:12;;;;;;;2.85;1.60;;;8.10;99.90;;;;;;4914477;29;20520;-54
2022/04/26 17:18:41;;;;;;;2.83;1.60;;;8.00;99.90;;;;;;4909432;29;20553;-54
2022/04/26 17:21:08;;;;;;;2.05;1.20;;;8.00;99.90;;;;;;4917429;29;20056;-54
2022/04/26 17:23:36;;;;;;;2.00;1.20;;;7.90;99.90;;;;;;4911051;29;20453;-54